KMXF/MXF METAR and TAF weather

Enter ICAO airport designator
Station Type Date Time Source
KMXF METAR 2019/10/21 03:56 UTC NOAA

KMXF 210356Z AUTO 00000KT 10SM CLR 17/16 A2996 RMK AO2 SLP148 T01690162


Station Type Date Time Source
KMXF Decoded METAR 2019/10/21 03:56 UTC NOAA

Maxwell Air Force Base / Montgomery, AL, United States (KMXF) 32-23N 086-22W
Oct 20, 2019 - 11:56 PM EDT / 2019.10.21 0356 UTC
Wind: Calm:0
Visibility: 10 mile(s):0
Sky conditions: clear
Temperature: 62.4 F (16.9 C)
Dew Point: 61.2 F (16.2 C)
Relative Humidity: 95%
Pressure (altimeter): 29.96 in. Hg (1014 hPa)
ob: KMXF 210356Z AUTO 00000KT 10SM CLR 17/16 A2996 RMK AO2 SLP148 T01690162
cycle: 4

Station Type Date Time Source
KMXF TAF 2019/10/20 21:53 UTC NOAA

TAF
AMD KMXF 202145Z 2021/2201 13006KT 9999 SCT015 QNH2988INS
BECMG 2111/2112 13006KT 9999 BKN009 OVC030 QNH2992INS
BECMG 2116/2117 16009KT 9999 OVC020 QNH2996INS
BECMG 2123/2124 12006KT 8000 -SHRA SCT016 QNH2989INS TX25/2021Z TN16/2110Z LAST NO
AMDS AFT 2023 NEXT 2111

Example: see airport list